首页
METAR-TAF:

METAR-TAF

机场 :

South Jersey Regional Airport

Mount Holly, 新泽西州, 美国

纬度: 39-56-26N, 经度: 074-50-28W, 海拔: 16米

当前天气观测

该预报发布于25分钟前的02:54 UTC
风速12节,风向西转西北,有时为22节阵风
温度 1°C
湿度 40%
气压 1032 hPa
能見度: 16.1公里
天空无云

METAR: KVAY 120254Z AUTO 29012G22KT 10SM CLR 01/M11 A3048 RMK AO2 SLP323 T00061111 53022

时间: 22:19 (03:19 UTC)


TAF: 丢失

超过4000个机场的气象观测和天气预报(METAR&TAF报告)。

可查询的气象台以黄色和红色小点在地图上表示。

将鼠标移到小点上方,可查看气象台名称。

然后点击查看天气观测和预报。

如需切换地图:点击带黑十字的绿色按钮放大地图;点击带横线的绿色按钮缩小地图;或者点击绿色箭头查看邻近地区的地图。


METAR-TAF: